createdAt,value
2023-03-05T15:22:57.230Z,57.72
2023-03-05T15:23:59.849Z,52.83
2023-03-05T15:25:02.368Z,59.85
2023-03-05T15:26:07.443Z,54.72
2023-03-05T15:27:10.051Z,54.17
2023-03-05T15:28:12.572Z,51.10
2023-03-05T15:29:15.049Z,52.15
2023-03-05T15:30:22.530Z,50.22
2023-03-05T15:31:25.055Z,51.47
2023-03-05T15:32:28.271Z,49.88
2023-03-05T15:33:31.723Z,54.28
2023-03-05T15:34:34.704Z,49.97
2023-03-05T15:35:38.048Z,51.17
2023-03-05T15:36:40.666Z,49.40
2023-03-05T15:37:43.308Z,53.00
2023-03-05T15:38:48.427Z,47.50
2023-03-05T15:39:50.983Z,51.35
2023-03-05T15:40:53.540Z,47.13
2023-03-05T15:41:56.702Z,49.25
2023-03-05T15:43:00.454Z,47.78
2023-03-05T15:44:03.105Z,47.13
2023-03-05T15:45:06.897Z,46.90
2023-03-05T15:46:09.463Z,48.55
2023-03-05T15:47:12.046Z,51.17
2023-03-05T15:48:14.581Z,47.05
2023-03-05T15:49:17.371Z,48.90
2023-03-05T15:50:21.768Z,45.33
2023-03-05T15:51:24.293Z,50.38
2023-03-05T15:52:26.879Z,41.97
2023-03-05T15:53:29.366Z,50.70
2023-03-05T15:54:35.463Z,49.80
2023-03-05T15:55:38.750Z,45.92
2023-03-05T15:56:41.545Z,48.67
2023-03-05T15:57:46.063Z,45.90
2023-03-05T15:58:49.663Z,45.03
2023-03-05T15:59:53.604Z,41.60
2023-03-05T16:00:56.049Z,43.75
2023-03-05T16:01:58.632Z,43.63
2023-03-05T16:03:01.201Z,48.72
2023-03-05T16:04:04.035Z,47.90
2023-03-05T16:05:08.213Z,42.30
2023-03-05T16:06:12.359Z,44.20
2023-03-05T16:07:15.685Z,41.60
2023-03-05T16:08:18.186Z,43.78
2023-03-05T16:09:22.126Z,41.97
2023-03-05T16:10:29.376Z,43.75
2023-03-05T16:11:35.703Z,43.67
2023-03-05T16:12:39.388Z,41.50
2023-03-05T16:13:42.290Z,42.85
2023-03-05T16:14:45.943Z,40.60
2023-03-05T16:15:48.853Z,37.85
2023-03-05T16:16:55.352Z,38.78
2023-03-05T16:18:00.696Z,39.85
2023-03-05T16:19:07.970Z,39.30
2023-03-05T16:20:12.682Z,40.70
2023-03-05T16:21:15.299Z,40.88
2023-03-05T16:22:17.820Z,39.10
2023-03-05T16:23:20.417Z,41.28
2023-03-05T16:24:22.909Z,44.15
2023-03-05T16:25:28.075Z,39.63
2023-03-05T16:26:30.978Z,42.47
2023-03-05T16:27:36.674Z,42.97
2023-03-05T16:28:39.173Z,35.85
2023-03-05T16:29:41.695Z,39.33
2023-03-05T16:30:44.229Z,38.40
2023-03-05T16:31:46.925Z,40.90
2023-03-05T16:32:49.901Z,37.97
2023-03-05T16:33:53.309Z,37.78
2023-03-05T16:34:57.155Z,38.50
2023-03-05T16:36:21.850Z,37.17
2023-03-05T16:37:25.139Z,38.00
2023-03-05T16:38:27.614Z,36.85
2023-03-05T16:39:30.218Z,36.75
2023-03-05T16:41:02.939Z,37.58
2023-03-05T16:41:59.171Z,35.40
2023-03-05T16:43:03.090Z,36.25
2023-03-05T16:44:05.779Z,37.30
2023-03-05T16:45:10.316Z,38.05
2023-03-05T16:46:13.911Z,39.47
2023-03-05T16:47:16.494Z,37.65
2023-03-05T16:48:19.019Z,34.45
2023-03-05T16:49:21.757Z,34.88
2023-03-05T16:50:24.791Z,36.13
2023-03-05T16:51:27.343Z,38.33
2023-03-05T16:52:29.922Z,37.22
2023-03-05T16:53:32.918Z,36.88
2023-03-05T16:54:35.412Z,36.38
2023-03-05T16:55:40.540Z,32.97
2023-03-05T16:56:43.076Z,33.15
2023-03-05T16:57:45.610Z,37.00
2023-03-05T16:58:49.219Z,37.53
2023-03-05T16:59:53.343Z,37.05
2023-03-05T17:00:56.233Z,35.03
2023-03-05T17:01:58.698Z,35.15
2023-03-05T17:03:01.218Z,36.78
2023-03-05T17:04:03.942Z,31.95
2023-03-05T17:05:06.980Z,35.85
2023-03-05T17:06:14.750Z,33.72
2023-03-05T17:07:17.521Z,35.35
2023-03-05T17:08:20.375Z,35.85
2023-03-05T17:09:23.250Z,35.95
2023-03-05T17:10:25.893Z,32.92
2023-03-05T17:11:31.103Z,34.20
2023-03-05T17:12:33.642Z,36.63
2023-03-05T17:13:36.766Z,32.42
2023-03-05T17:14:39.276Z,33.70
2023-03-05T17:17:04.566Z,36.90
2023-03-05T17:18:07.190Z,32.65
2023-03-05T17:19:09.784Z,36.15
2023-03-05T17:20:13.184Z,42.78
2023-03-05T17:21:16.173Z,33.22
2023-03-05T17:22:18.692Z,33.90
2023-03-05T17:23:21.253Z,36.85
2023-03-05T17:24:23.774Z,32.03
2023-03-05T17:25:26.272Z,36.33
2023-03-05T17:26:31.551Z,32.17
2023-03-05T17:27:36.126Z,36.70
2023-03-05T17:28:39.681Z,34.25
2023-03-05T17:29:42.222Z,31.95
2023-03-05T17:30:44.918Z,30.63
2023-03-05T17:31:49.722Z,29.05
2023-03-05T17:32:52.990Z,32.45
2023-03-05T17:33:55.717Z,35.28
2023-03-05T17:34:58.253Z,29.88
2023-03-05T17:36:01.415Z,30.60
2023-03-05T17:37:05.285Z,33.90
2023-03-05T17:38:08.169Z,28.98
2023-03-05T17:39:10.673Z,30.10
2023-03-05T17:40:14.564Z,32.22
2023-03-05T17:41:18.198Z,31.08
2023-03-05T17:42:23.396Z,30.58
2023-03-05T17:43:27.901Z,31.00
2023-03-05T17:44:30.893Z,29.90
2023-03-05T17:45:33.408Z,31.98
2023-03-05T17:46:35.950Z,30.73
2023-03-05T17:47:38.635Z,29.45
2023-03-05T17:48:41.344Z,30.15
2023-03-05T17:49:43.854Z,31.35
2023-03-05T17:50:46.574Z,28.42
2023-03-05T17:51:49.093Z,30.42
2023-03-05T17:52:51.599Z,26.63
2023-03-05T17:53:54.517Z,29.52
2023-03-05T17:54:58.373Z,30.00
2023-03-05T17:56:02.020Z,28.80
2023-03-05T17:57:04.729Z,25.83
2023-03-05T17:58:10.329Z,32.95
2023-03-05T17:59:14.704Z,29.08
2023-03-05T18:00:19.864Z,31.35
2023-03-05T18:01:24.495Z,29.25
2023-03-05T18:02:27.343Z,26.08
2023-03-05T18:03:29.883Z,28.42
2023-03-05T18:04:32.411Z,30.05
2023-03-05T18:05:35.160Z,27.58
2023-03-05T18:06:37.698Z,30.55
2023-03-05T18:07:40.249Z,31.25
2023-03-05T18:08:42.745Z,23.95
2023-03-05T18:09:45.341Z,25.42
2023-03-05T18:10:47.935Z,26.67
2023-03-05T18:11:50.392Z,27.25
2023-03-05T18:12:54.068Z,27.95
2023-03-05T18:13:59.210Z,28.88
2023-03-05T18:15:01.850Z,29.63
2023-03-05T18:16:04.752Z,25.80
2023-03-05T18:17:07.297Z,29.25
2023-03-05T18:18:09.824Z,28.20
2023-03-05T18:19:12.346Z,27.90
2023-03-05T18:20:27.098Z,26.80
2023-03-05T18:21:29.606Z,25.10
2023-03-05T18:22:32.146Z,28.98
2023-03-05T18:23:34.700Z,27.27
2023-03-05T18:24:37.204Z,24.15
2023-03-05T18:25:40.086Z,29.50
2023-03-05T18:26:42.580Z,30.30
2023-03-05T18:27:45.147Z,32.17
2023-03-05T18:28:47.643Z,31.05
2023-03-05T18:29:52.739Z,27.85
2023-03-05T18:30:55.426Z,28.88
2023-03-05T18:31:57.936Z,23.83
2023-03-05T18:33:00.733Z,24.40
2023-03-05T18:34:03.342Z,25.55
2023-03-05T18:35:06.823Z,23.48
2023-03-05T18:36:10.956Z,28.13
2023-03-05T18:37:13.576Z,25.77
2023-03-05T18:38:16.089Z,25.45
2023-03-05T18:39:18.763Z,25.67
2023-03-05T18:40:23.715Z,23.08
2023-03-05T18:41:28.176Z,25.30
2023-03-05T18:42:30.875Z,25.05
2023-03-05T18:43:34.376Z,26.30
2023-03-05T18:44:36.996Z,23.52
2023-03-05T18:45:42.164Z,22.42
2023-03-05T18:46:44.770Z,25.85
2023-03-05T18:47:47.587Z,22.27
2023-03-05T18:48:50.171Z,22.65
2023-03-05T18:49:52.742Z,25.13
2023-03-05T18:50:55.298Z,24.10
2023-03-05T18:51:57.802Z,22.80
2023-03-05T18:53:00.394Z,23.52
2023-03-05T18:54:03.205Z,21.05
2023-03-05T18:55:06.743Z,21.60
2023-03-05T18:56:09.743Z,23.42
2023-03-05T18:57:12.228Z,25.17
2023-03-05T18:58:14.687Z,21.70
2023-03-05T18:59:17.275Z,20.92
2023-03-05T19:00:23.115Z,23.38
2023-03-05T19:01:28.370Z,24.80
2023-03-05T19:02:30.912Z,22.40
2023-03-05T19:03:33.461Z,19.95
2023-03-05T19:04:35.988Z,24.05
2023-03-05T19:05:38.856Z,22.40
2023-03-05T19:06:41.425Z,21.60
2023-03-05T19:07:44.085Z,21.58
2023-03-05T19:08:47.237Z,21.90
2023-03-05T19:09:49.837Z,18.90
2023-03-05T19:10:52.314Z,20.30
2023-03-05T19:11:54.854Z,20.48
2023-03-05T19:12:57.809Z,20.67
2023-03-05T19:14:00.323Z,22.73
2023-03-05T19:15:04.205Z,21.90
2023-03-05T19:16:08.714Z,19.33
2023-03-05T19:17:13.839Z,19.83
2023-03-05T19:18:16.435Z,18.67
2023-03-05T19:19:19.217Z,18.77
2023-03-05T19:20:21.749Z,23.27
2023-03-05T19:21:24.434Z,18.58
2023-03-05T19:22:27.379Z,19.02
2023-03-05T19:23:29.876Z,20.48
2023-03-05T19:24:32.441Z,16.67
2023-03-05T19:25:36.527Z,17.17
2023-03-05T19:26:39.260Z,18.33
2023-03-05T19:27:41.871Z,19.35
2023-03-05T19:28:44.375Z,21.00
2023-03-05T19:29:46.908Z,17.90
2023-03-05T19:30:49.983Z,20.63
2023-03-05T19:31:54.100Z,17.58
2023-03-05T19:32:59.221Z,18.75
2023-03-05T19:34:02.007Z,17.17
2023-03-05T19:35:05.420Z,16.67
2023-03-05T19:36:09.681Z,17.08
2023-03-05T19:37:12.463Z,19.77
2023-03-05T19:38:15.061Z,15.63
2023-03-05T19:39:18.615Z,16.92
2023-03-05T19:40:22.473Z,17.63
2023-03-05T19:41:25.267Z,15.65
2023-03-05T19:42:27.783Z,16.25
2023-03-05T19:43:30.327Z,16.50
2023-03-05T19:44:33.073Z,16.58
2023-03-05T19:45:35.654Z,16.73
2023-03-05T19:46:38.198Z,14.82
2023-03-05T19:47:40.697Z,14.98
2023-03-05T19:48:45.860Z,20.38
2023-03-05T19:49:48.362Z,15.18
2023-03-05T19:50:50.896Z,18.77
2023-03-05T19:51:53.527Z,15.52
2023-03-05T19:52:56.116Z,18.38
2023-03-05T19:53:58.709Z,14.23
2023-03-05T19:55:01.214Z,15.50
2023-03-05T19:56:04.328Z,17.40
2023-03-05T19:57:06.931Z,15.13
2023-03-05T19:58:09.421Z,15.80
2023-03-05T19:59:12.180Z,14.90
2023-03-05T20:00:15.363Z,15.38
2023-03-05T20:01:19.704Z,14.55
2023-03-05T20:02:22.269Z,18.42
2023-03-05T20:03:24.841Z,17.30
2023-03-05T20:04:29.949Z,13.85
2023-03-05T20:05:32.459Z,14.40
2023-03-05T20:06:35.024Z,12.05
2023-03-05T20:07:37.522Z,14.23
2023-03-05T20:08:40.324Z,15.38
2023-03-05T20:09:42.942Z,14.60
2023-03-05T20:10:45.500Z,15.30
2023-03-05T20:11:48.104Z,12.27
2023-03-05T20:12:50.699Z,14.43
2023-03-05T20:13:53.239Z,13.95
2023-03-05T20:14:55.983Z,12.35
2023-03-05T20:15:58.790Z,12.23
2023-03-05T20:17:01.389Z,13.00
2023-03-05T20:18:04.287Z,13.07
2023-03-05T20:19:08.489Z,12.60
2023-03-05T20:20:18.070Z,13.25
2023-03-05T20:21:22.093Z,11.98
2023-03-05T20:22:24.798Z,12.65
2023-03-05T20:23:28.246Z,12.82
2023-03-05T20:24:30.942Z,11.80
2023-03-05T20:25:33.488Z,11.20
2023-03-05T20:26:37.707Z,14.98
2023-03-05T20:27:40.274Z,12.52
2023-03-05T20:28:42.822Z,10.77
2023-03-05T20:29:45.303Z,11.35
2023-03-05T20:30:53.489Z,11.20
2023-03-05T20:31:55.986Z,11.02
2023-03-05T20:32:58.508Z,12.27
2023-03-05T20:34:01.189Z,10.30
2023-03-05T20:35:03.904Z,12.20
2023-03-05T20:36:09.615Z,12.35
2023-03-05T20:37:12.169Z,11.55
2023-03-05T20:38:15.442Z,11.90
2023-03-05T20:39:17.930Z,10.98
2023-03-05T20:40:20.473Z,11.13
2023-03-05T20:41:23.024Z,12.15
2023-03-05T20:42:25.513Z,13.18
2023-03-05T20:43:30.305Z,11.00
2023-03-05T20:44:34.459Z,13.40
2023-03-05T20:45:37.665Z,14.45
2023-03-05T20:46:40.912Z,10.70
2023-03-05T20:47:43.763Z,12.90
2023-03-05T20:48:47.734Z,10.27
2023-03-05T20:49:54.491Z,10.75
2023-03-05T20:50:57.633Z,11.80
2023-03-05T20:52:02.780Z,12.13
2023-03-05T20:53:05.298Z,10.43
2023-03-05T20:54:11.163Z,9.55
2023-03-05T20:55:13.661Z,9.68
2023-03-05T20:56:16.248Z,12.43
2023-03-05T20:57:18.802Z,10.27
2023-03-05T20:58:21.283Z,10.35
2023-03-05T20:59:23.964Z,12.63
2023-03-05T21:00:26.730Z,10.32
2023-03-05T21:01:30.551Z,9.63
2023-03-05T21:02:33.044Z,9.68
2023-03-05T21:03:35.620Z,10.48
2023-03-05T21:04:38.155Z,9.88
2023-03-05T21:05:40.813Z,10.90
2023-03-05T21:06:43.320Z,9.15
2023-03-05T21:07:48.869Z,9.70
2023-03-05T21:08:51.454Z,10.35
2023-03-05T21:09:53.978Z,9.77
2023-03-05T21:10:56.497Z,10.23
2023-03-05T21:11:59.219Z,10.80
2023-03-05T21:13:01.708Z,10.07
2023-03-05T21:14:04.270Z,10.02
2023-03-05T21:15:11.822Z,9.95
2023-03-05T21:16:17.538Z,10.20
2023-03-05T21:17:20.116Z,9.73
2023-03-05T21:18:22.670Z,9.15
2023-03-05T21:19:25.635Z,9.75
2023-03-05T21:20:30.442Z,9.52
2023-03-05T21:21:33.175Z,8.73
2023-03-05T21:22:35.908Z,11.27
2023-03-05T21:23:41.050Z,9.55
2023-03-05T21:24:43.581Z,8.90
2023-03-05T21:25:46.697Z,8.75
2023-03-05T21:26:49.200Z,8.35
2023-03-05T21:27:55.847Z,10.63
2023-03-05T21:28:58.349Z,8.75
2023-03-05T21:30:01.053Z,10.73
2023-03-05T21:31:07.813Z,9.13
2023-03-05T21:32:10.415Z,8.70
2023-03-05T21:33:14.763Z,8.32
2023-03-05T21:34:17.472Z,9.23
2023-03-05T21:35:22.111Z,11.57
2023-03-05T21:36:24.807Z,8.40
2023-03-05T21:37:27.546Z,8.32
2023-03-05T21:38:30.140Z,8.18
2023-03-05T21:39:35.386Z,9.63
2023-03-05T21:40:41.546Z,7.70
2023-03-05T21:41:44.089Z,7.55
2023-03-05T21:42:47.468Z,8.68
2023-03-05T21:43:49.977Z,7.15
2023-03-05T21:44:54.022Z,7.63
2023-03-05T21:45:57.862Z,6.88
2023-03-05T21:47:00.400Z,7.07
2023-03-05T21:48:03.015Z,7.57
2023-03-05T21:49:05.526Z,7.00
2023-03-05T21:50:11.244Z,7.20
2023-03-05T21:51:17.424Z,6.55
2023-03-05T21:52:20.083Z,6.57
2023-03-05T21:53:23.232Z,6.38
2023-03-05T21:54:27.380Z,6.78
2023-03-05T21:55:33.180Z,5.57
2023-03-05T21:56:35.851Z,5.95
2023-03-05T21:57:38.423Z,6.80
2023-03-05T21:58:40.894Z,5.65
2023-03-05T21:59:43.435Z,5.78
2023-03-05T22:00:45.949Z,6.00
2023-03-05T22:01:48.474Z,6.28
2023-03-05T22:02:51.198Z,6.65
2023-03-05T22:03:53.720Z,5.60
2023-03-05T22:04:56.241Z,6.22
2023-03-05T22:05:58.825Z,5.38
2023-03-05T22:07:01.314Z,6.20
2023-03-05T22:08:04.708Z,6.32
2023-03-05T22:09:07.215Z,6.28
2023-03-05T22:10:13.188Z,5.68
2023-03-05T22:11:19.028Z,6.35
2023-03-05T22:12:22.423Z,5.53
2023-03-05T22:13:25.071Z,5.55
2023-03-05T22:14:27.731Z,5.68
2023-03-05T22:15:30.489Z,5.97
2023-03-05T22:16:33.006Z,5.40
2023-03-05T22:17:35.522Z,6.20
2023-03-05T22:18:38.109Z,5.50
2023-03-05T22:19:40.590Z,5.60
2023-03-05T22:20:43.895Z,5.90
2023-03-05T22:21:46.526Z,5.15
2023-03-05T22:22:49.012Z,7.15
2023-03-05T22:23:51.478Z,6.55
2023-03-05T22:24:53.952Z,5.88
2023-03-05T22:25:57.373Z,5.95
2023-03-05T22:27:02.509Z,6.47
2023-03-05T22:28:05.605Z,4.82
2023-03-05T22:29:08.777Z,7.18
2023-03-05T22:30:13.081Z,5.63
2023-03-05T22:31:20.469Z,6.70
2023-03-05T22:32:23.087Z,5.90
2023-03-05T22:33:26.278Z,10.38
2023-03-05T22:34:28.918Z,5.75
2023-03-05T22:35:31.447Z,5.60
2023-03-05T23:14:34.478Z,6.65
